Time;durP1;ratioP1;P1;durP2;ratioP2;P2;SDS_P1;SDS_P2;PMS_P1;PMS_P2;Temp;Humidity;BMP_temperature;BMP_pressure;BME280_temperature;BME280_humidity;BME280_pressure;Samples;Min_cycle;Max_cycle;Signal;HPM_P1;HPM_P2
2022/05/15 00:01:45;;;;;;;5.62;2.33;;;;;;;9.43;53.23;101250.87;1658698;84;21516;-73
2022/05/15 00:04:12;;;;;;;7.47;2.52;;;;;;;9.38;53.22;101253.88;1668639;85;26534;-75
2022/05/15 00:06:38;;;;;;;4.22;2.50;;;;;;;9.30;53.28;101253.92;1673662;84;20910;-75
2022/05/15 00:09:05;;;;;;;6.97;2.60;;;;;;;9.23;53.31;101249.63;1653037;84;21061;-74
2022/05/15 00:11:37;;;;;;;4.70;2.10;;;;;;;9.17;53.48;101245.32;1644960;85;20984;-74
2022/05/15 00:14:03;;;;;;;5.83;2.03;;;;;;;9.13;53.48;101253.92;1658578;85;21068;-75
2022/05/15 00:16:35;;;;;;;4.80;2.27;;;;;;;9.07;53.55;101251.34;1662869;85;21068;-74
2022/05/15 00:18:59;;;;;;;4.72;2.25;;;;;;;9.01;53.60;101255.20;1661977;84;21108;-75
2022/05/15 00:21:25;;;;;;;5.45;2.52;;;;;;;9.01;53.76;101253.05;1644195;85;21049;-74
2022/05/15 00:23:52;;;;;;;3.33;2.22;;;;;;;8.98;53.81;101257.78;1655035;85;21423;-74
2022/05/15 00:26:24;;;;;;;6.35;2.50;;;;;;;8.92;53.87;101255.19;1651397;84;21101;-74
2022/05/15 00:28:50;;;;;;;7.37;2.37;;;;;;;8.90;53.90;101254.33;1644732;85;20930;-74
2022/05/15 00:31:16;;;;;;;3.37;2.08;;;;;;;8.84;53.98;101257.77;1628330;86;21124;-74
2022/05/15 00:33:44;;;;;;;3.97;2.50;;;;;;;8.79;54.08;101262.52;1653488;83;21060;-75
2022/05/15 00:36:10;;;;;;;5.62;2.62;;;;;;;8.74;54.13;101254.77;1657093;85;20988;-76
2022/05/15 00:38:36;;;;;;;3.62;2.50;;;;;;;8.74;54.23;101261.64;1618774;85;21101;-75
2022/05/15 00:41:04;;;;;;;5.50;2.92;;;;;;;8.70;54.23;101258.62;1595999;88;21186;-73
2022/05/15 00:43:51;;;;;;;6.33;2.62;;;;;;;8.67;54.35;101258.19;1619822;87;21164;-74
2022/05/15 00:46:30;;;;;;;6.40;2.60;;;;;;;8.67;54.43;101261.20;1590248;87;21106;-74
2022/05/15 00:49:00;;;;;;;5.90;2.70;;;;;;;8.68;54.50;101259.91;1603865;87;21039;-74
2022/05/15 00:51:46;;;;;;;6.97;2.35;;;;;;;8.68;54.50;101261.20;1617376;86;21067;-74
2022/05/15 00:54:26;;;;;;;5.65;2.45;;;;;;;8.66;54.62;101263.34;1610981;87;21139;-74
2022/05/15 00:57:03;;;;;;;7.72;2.60;;;;;;;8.65;54.68;101264.20;1605642;87;21145;-74
2022/05/15 00:59:34;;;;;;;7.80;2.70;;;;;;;8.62;54.70;101263.77;1619830;85;21056;-75
2022/05/15 01:02:02;;;;;;;9.10;2.62;;;;;;;8.60;54.79;101261.61;1660325;84;21060;-75
2022/05/15 01:04:31;;;;;;;5.95;2.22;;;;;;;8.62;55.02;101264.63;1650916;83;20988;-74
2022/05/15 01:06:57;;;;;;;8.85;2.35;;;;;;;8.67;55.06;101265.92;1662611;85;21072;-75
2022/05/15 01:09:23;;;;;;;3.70;2.30;;;;;;;8.73;55.16;101271.52;1659099;85;21545;-75
2022/05/15 01:11:50;;;;;;;6.00;2.30;;;;;;;8.77;55.27;101271.53;1676481;85;21080;-74
2022/05/15 01:14:20;;;;;;;13.95;3.33;;;;;;;8.81;55.26;101262.09;1658727;83;21119;-74
2022/05/15 01:16:46;;;;;;;7.33;1.87;;;;;;;8.83;55.40;101269.39;1632312;87;20979;-74
2022/05/15 01:19:14;;;;;;;11.63;2.40;;;;;;;8.89;55.49;101267.66;1679672;83;20914;-74
2022/05/15 01:21:56;;;;;;;6.78;1.82;;;;;;;8.94;55.62;101272.39;1651733;85;21051;-75
2022/05/15 01:24:24;;;;;;;5.70;2.00;;;;;;;9.00;55.61;101269.39;1650689;86;20980;-74
2022/05/15 01:26:50;;;;;;;8.18;2.55;;;;;;;9.03;55.68;101269.39;1650285;83;21001;-75
2022/05/15 01:29:17;;;;;;;9.83;1.83;;;;;;;9.06;55.80;101270.25;1635618;86;20918;-75
2022/05/15 01:31:43;;;;;;;;;;;;;;;9.10;55.85;101269.83;1654555;83;20969;-75
2022/05/15 01:34:11;;;;;;;5.05;1.72;;;;;;;9.11;56.54;101274.98;1669210;83;20156;-74
2022/05/15 01:36:38;;;;;;;4.90;1.75;;;;;;;9.14;55.97;101272.84;1658673;85;21077;-77
2022/05/15 01:39:06;;;;;;;5.28;1.72;;;;;;;9.12;55.93;101275.84;1614487;88;21126;-76
2022/05/15 01:41:33;;;;;;;5.47;2.00;;;;;;;9.10;55.96;101277.14;1599583;89;20947;-75
2022/05/15 01:43:59;;;;;;;5.78;1.77;;;;;;;9.09;56.03;101277.14;1626354;85;27106;-74
2022/05/15 01:46:29;;;;;;;7.40;1.82;;;;;;;9.09;56.13;101276.70;1612551;86;21148;-74
2022/05/15 01:48:55;;;;;;;4.83;2.45;;;;;;;9.07;56.15;101275.84;1627970;85;21101;-74
2022/05/15 01:51:23;;;;;;;3.90;1.72;;;;;;;9.07;56.26;101275.84;1585699;89;26569;-75
2022/05/15 01:53:49;;;;;;;5.45;1.87;;;;;;;9.08;56.28;101280.58;1592119;88;21016;-74
2022/05/15 01:56:16;;;;;;;4.17;1.70;;;;;;;9.11;56.37;101281.87;1612949;85;21115;-74
2022/05/15 01:58:42;;;;;;;4.12;1.65;;;;;;;9.09;56.42;101275.84;1613935;87;21689;-75
2022/05/15 02:01:08;;;;;;;7.80;1.90;;;;;;;9.10;56.50;101282.30;1597048;89;20992;-74
2022/05/15 02:03:34;;;;;;;8.63;2.00;;;;;;;9.09;56.57;101279.72;1635427;85;21006;-74
2022/05/15 02:06:02;;;;;;;6.95;2.15;;;;;;;9.09;56.55;101279.28;1597250;89;21092;-74
2022/05/15 02:08:32;;;;;;;5.10;1.62;;;;;;;9.04;56.64;101277.13;1649947;86;20902;-74
2022/05/15 02:10:59;;;;;;;5.55;1.65;;;;;;;9.04;56.76;101276.27;1673735;83;20910;-74
2022/05/15 02:13:26;;;;;;;6.65;2.00;;;;;;;9.05;56.88;101281.86;1650263;85;20890;-74
2022/05/15 02:15:52;;;;;;;4.30;1.80;;;;;;;9.05;56.87;101274.98;1652555;85;21041;-74
2022/05/15 02:18:18;;;;;;;7.12;2.27;;;;;;;9.01;56.98;101276.27;1660799;83;21016;-75
2022/05/15 02:20:44;;;;;;;5.00;2.10;;;;;;;9.01;56.98;101276.27;1646817;85;21117;-74
2022/05/15 02:23:11;;;;;;;7.60;2.37;;;;;;;8.98;57.02;101271.97;1646075;86;21517;-74
2022/05/15 02:25:38;;;;;;;12.40;2.07;;;;;;;8.98;57.12;101281.42;1647201;86;20882;-75
2022/05/15 02:28:05;;;;;;;4.58;1.57;;;;;;;8.95;57.13;101279.70;1668293;84;21505;-74
2022/05/15 02:30:31;;;;;;;9.83;2.17;;;;;;;8.95;57.13;101283.56;1641189;86;21097;-73
2022/05/15 02:32:57;;;;;;;7.30;2.25;;;;;;;8.93;57.25;101281.41;1611448;86;21075;-74
2022/05/15 02:35:23;;;;;;;8.97;2.03;;;;;;;8.94;57.25;101280.55;1587902;88;20952;-75
2022/05/15 02:37:49;;;;;;;5.37;2.15;;;;;;;8.93;57.39;101283.56;1609736;86;21054;-74
2022/05/15 02:40:20;;;;;;;7.77;2.20;;;;;;;8.93;57.32;101287.44;1590960;87;463808;-74
2022/05/15 02:42:45;;;;;;;8.98;1.90;;;;;;;8.88;57.31;101289.14;1594383;86;21512;-74
2022/05/15 02:45:12;;;;;;;6.60;2.10;;;;;;;8.84;57.36;101293.00;1606864;87;20965;-74
2022/05/15 02:47:41;;;;;;;8.03;2.20;;;;;;;8.80;57.46;101290.87;1619525;87;21602;-74
2022/05/15 02:52:55;;;;;;;;;;;;;;;8.78;57.56;101281.42;1616911;86;21012;-74
2022/05/15 02:55:24;;;;;;;4.58;1.80;;;;;;;8.74;58.14;101285.70;1597643;86;20527;-74
2022/05/15 02:57:51;;;;;;;6.40;2.42;;;;;;;8.73;57.76;101292.15;1594931;87;21142;-74
2022/05/15 03:00:21;;;;;;;7.33;1.95;;;;;;;8.70;57.67;101301.16;1617841;88;21735;-74
2022/05/15 03:02:48;;;;;;;10.20;2.00;;;;;;;8.65;57.71;101301.16;1604775;86;21007;-74
2022/05/15 03:05:16;;;;;;;4.40;1.75;;;;;;;8.58;57.72;101304.14;1608484;87;21091;-74
2022/05/15 03:07:43;;;;;;;9.23;1.60;;;;;;;8.54;57.80;101298.97;1602344;88;20973;-75
2022/05/15 03:10:13;;;;;;;9.20;2.02;;;;;;;8.52;57.84;101301.97;1618190;87;21123;-74
2022/05/15 03:12:40;;;;;;;5.15;2.22;;;;;;;8.49;57.91;101305.39;1603683;86;21075;-74
2022/05/15 03:15:08;;;;;;;10.85;2.60;;;;;;;8.46;57.93;101313.11;1593594;88;21087;-74
2022/05/15 03:17:35;;;;;;;4.97;2.12;;;;;;;8.41;57.92;101316.09;1613154;86;21027;-74
2022/05/15 03:20:04;;;;;;;5.03;1.95;;;;;;;8.36;57.99;101316.93;1603324;88;21076;-74
2022/05/15 03:22:31;;;;;;;5.60;2.30;;;;;;;8.32;58.10;101321.17;1619850;87;21068;-74
2022/05/15 03:24:57;;;;;;;5.50;1.80;;;;;;;8.29;58.10;101318.19;1617457;86;21095;-74
2022/05/15 03:27:23;;;;;;;5.97;2.35;;;;;;;8.28;58.20;101321.63;1605170;88;21795;-75
2022/05/15 03:29:49;;;;;;;5.28;1.87;;;;;;;8.28;58.23;101327.20;1607750;88;21015;-74
2022/05/15 03:32:15;;;;;;;5.07;1.90;;;;;;;8.26;58.28;101327.20;1600795;87;20928;-74
2022/05/15 03:34:41;;;;;;;7.27;1.90;;;;;;;8.24;58.34;101329.33;1612776;87;21099;-74
2022/05/15 03:37:08;;;;;;;3.47;1.73;;;;;;;8.18;58.23;101335.31;1604172;87;21080;-74
2022/05/15 03:39:34;;;;;;;7.22;2.35;;;;;;;8.18;58.23;101335.31;1595655;86;21638;-74
2022/05/15 03:41:59;;;;;;;5.17;1.77;;;;;;;8.19;58.54;101339.61;1651769;85;20985;-74
2022/05/15 03:44:27;;;;;;;4.83;2.20;;;;;;;8.21;58.54;101340.91;1653156;84;20985;-74
2022/05/15 03:46:53;;;;;;;8.93;2.17;;;;;;;8.26;58.69;101340.50;1667933;84;21564;-74
2022/05/15 03:49:19;;;;;;;6.37;2.13;;;;;;;8.33;58.69;101349.98;1659576;85;21051;-73
2022/05/15 03:51:45;;;;;;;6.57;1.83;;;;;;;8.36;58.75;101345.28;1659085;84;20926;-75
2022/05/15 03:54:11;;;;;;;4.77;1.60;;;;;;;8.38;58.72;101347.01;1650764;85;20985;-75
2022/05/15 03:57:00;;;;;;;6.42;1.70;;;;;;;8.39;58.70;101347.87;1642065;84;21127;-75
2022/05/15 03:59:07;;;;;;;2.55;1.40;;;;;;;8.34;58.79;101345.70;1660674;85;21050;-76
2022/05/15 04:01:35;;;;;;;4.28;2.10;;;;;;;8.42;58.88;101353.04;1617598;85;21088;-75
2022/05/15 04:04:01;;;;;;;7.78;2.30;;;;;;;8.56;59.10;101350.95;1654123;84;21030;-76
2022/05/15 04:06:28;;;;;;;5.87;2.47;;;;;;;8.79;59.22;101349.75;1661240;85;21131;-76
2022/05/15 04:08:54;;;;;;;3.92;2.00;;;;;;;8.96;59.26;101347.19;1657833;85;21066;-75
2022/05/15 04:11:20;;;;;;;8.50;2.50;;;;;;;9.16;59.35;101357.56;1658962;84;22176;-75
2022/05/15 04:13:47;;;;;;;9.38;2.33;;;;;;;9.33;59.34;101352.42;1661339;85;21065;-75
2022/05/15 04:16:13;;;;;;;5.67;2.17;;;;;;;9.44;59.34;101350.25;1661183;84;21062;-75
2022/05/15 04:18:40;;;;;;;9.90;3.23;;;;;;;9.56;59.41;101360.58;1654680;85;21070;-74
2022/05/15 04:21:10;;;;;;;7.60;2.27;;;;;;;9.60;59.40;101354.56;1654827;84;21305;-74
2022/05/15 04:23:36;;;;;;;6.08;1.87;;;;;;;9.68;59.45;101353.70;1652793;85;21069;-74
2022/05/15 04:26:03;;;;;;;5.45;2.30;;;;;;;9.72;59.51;101358.86;1664785;85;21509;-74
2022/05/15 04:28:29;;;;;;;;;;;;;;;9.76;59.51;101359.72;1663184;84;21053;-74
2022/05/15 04:30:56;;;;;;;9.88;3.02;;;;;;;9.79;60.05;101363.16;1663574;84;20165;-74
2022/05/15 04:33:22;;;;;;;8.43;2.93;;;;;;;9.81;59.69;101367.89;1663464;85;21129;-75
2022/05/15 04:35:48;;;;;;;9.90;3.20;;;;;;;9.86;59.71;101362.72;1663553;84;21171;-75
2022/05/15 04:38:14;;;;;;;9.33;3.23;;;;;;;9.93;59.78;101368.28;1669691;85;21055;-75
2022/05/15 04:40:40;;;;;;;6.15;3.10;;;;;;;9.99;59.75;101371.29;1677623;85;21008;-75
2022/05/15 04:43:07;;;;;;;4.85;2.50;;;;;;;10.05;59.80;101374.72;1673786;84;21094;-76
2022/05/15 04:45:33;;;;;;;7.08;2.67;;;;;;;10.10;59.87;101370.84;1653781;84;25599;-76
2022/05/15 04:47:59;;;;;;;5.53;1.85;;;;;;;10.17;59.91;101381.59;1645270;85;21108;-76
2022/05/15 04:50:25;;;;;;;6.07;2.53;;;;;;;10.22;59.95;101379.47;1674090;85;21709;-76
2022/05/15 04:52:51;;;;;;;11.10;2.77;;;;;;;10.30;59.97;101381.17;1655451;82;31163;-76
2022/05/15 04:55:17;;;;;;;8.10;2.47;;;;;;;10.37;59.99;101386.32;1635881;86;21578;-76
2022/05/15 04:57:44;;;;;;;10.90;2.40;;;;;;;10.42;60.02;101383.27;1634609;85;21023;-75
2022/05/15 05:00:17;;;;;;;5.67;2.35;;;;;;;10.52;60.08;101387.54;1644824;86;21154;-75
2022/05/15 05:02:44;;;;;;;4.30;2.50;;;;;;;10.65;60.16;101387.06;1644721;87;20897;-74
2022/05/15 05:05:10;;;;;;;6.35;2.50;;;;;;;10.85;60.27;101393.45;1644639;87;20976;-74
2022/05/15 05:07:37;;;;;;;4.92;2.08;;;;;;;11.09;60.30;101386.83;1618595;86;20997;-75
2022/05/15 05:10:09;;;;;;;6.47;2.65;;;;;;;11.51;60.47;101386.95;1632026;87;20953;-75
2022/05/15 05:12:36;;;;;;;7.40;2.55;;;;;;;12.13;60.58;101393.34;1632900;86;20967;-74
2022/05/15 05:15:04;;;;;;;;;;;;;;;12.83;60.62;101394.25;1635479;86;20941;-74
2022/05/15 05:17:30;;;;;;;12.03;2.50;;;;;;;13.56;60.59;101391.89;1642111;87;20592;-74
2022/05/15 05:19:56;;;;;;;8.13;2.63;;;;;;;14.98;60.71;101399.19;1621250;87;21015;-75
2022/05/15 05:22:22;;;;;;;6.08;2.37;;;;;;;14.98;60.71;101399.19;1634275;85;20972;-75
2022/05/15 05:24:48;;;;;;;4.93;2.50;;;;;;;15.57;60.44;101403.49;1633267;86;20988;-74
2022/05/15 05:27:15;;;;;;;9.65;2.33;;;;;;;16.17;60.31;101411.47;1641189;85;21016;-75
2022/05/15 05:29:47;;;;;;;6.87;2.17;;;;;;;16.88;60.23;101411.23;1630903;87;21618;-75
2022/05/15 05:32:13;;;;;;;4.97;1.93;;;;;;;17.59;59.97;101405.98;1638876;84;232757;-74
2022/05/15 06:07:12;;;;;;;3.70;1.47;;;;;;;23.01;57.04;101428.16;1739261;79;21077;-75
2022/05/15 06:09:43;;;;;;;2.37;1.30;;;;;;;23.14;56.48;101432.76;1725591;81;21562;-75
2022/05/15 06:12:11;;;;;;;3.70;1.52;;;;;;;23.16;55.87;101439.66;1709087;81;21054;-75
2022/05/15 06:14:38;;;;;;;3.15;1.50;;;;;;;23.11;55.44;101436.41;1725212;81;21109;-75
2022/05/15 06:17:04;;;;;;;5.05;1.60;;;;;;;22.90;54.90;101434.48;1708222;81;21763;-76
2022/05/15 06:19:31;;;;;;;5.25;1.70;;;;;;;22.90;54.67;101437.59;1731496;81;21376;-79
2022/05/15 06:21:59;;;;;;;3.10;1.90;;;;;;;22.80;54.15;101439.89;1729046;81;21472;-77
2022/05/15 06:24:28;;;;;;;5.53;1.70;;;;;;;22.75;53.88;101437.94;1734375;81;21387;-79
2022/05/15 06:27:02;;;;;;;5.08;1.35;;;;;;;22.73;53.41;101438.48;1732855;81;21471;-78
2022/05/15 06:29:25;;;;;;;4.58;1.42;;;;;;;22.55;53.00;101440.31;1726308;82;21388;-78
2022/05/15 06:31:51;;;;;;;4.90;1.55;;;;;;;22.24;52.54;101423.96;1736494;81;21612;-78
2022/05/15 06:34:18;;;;;;;5.22;2.12;;;;;;;22.24;52.54;101423.96;1734352;81;21055;-78
2022/05/15 06:36:44;;;;;;;3.27;1.17;;;;;;;22.35;51.92;101449.76;1734275;81;20911;-77
2022/05/15 06:39:10;;;;;;;4.60;1.73;;;;;;;22.41;51.59;101446.77;1729202;81;20878;-78
2022/05/15 06:41:37;;;;;;;7.47;1.10;;;;;;;22.38;51.15;101440.34;1732054;81;21526;-76
2022/05/15 06:44:04;;;;;;;2.17;0.98;;;;;;;22.32;50.84;101444.64;1732949;81;21433;-76
2022/05/15 06:46:32;;;;;;;3.80;1.30;;;;;;;22.29;50.72;101445.66;1716665;82;21364;-76
2022/05/15 06:48:57;;;;;;;1.37;0.88;;;;;;;22.35;50.29;101443.17;1701216;82;20908;-76
2022/05/15 06:51:24;;;;;;;6.63;2.07;;;;;;;22.32;50.08;101442.86;1705023;82;20896;-76
2022/05/15 06:53:50;;;;;;;11.95;11.18;;;;;;;22.40;50.00;101439.33;1703292;84;20944;-76
2022/05/15 06:59:03;;;;;;;4.63;1.10;;;;;;;22.56;49.35;101444.66;1711113;82;20939;-75
2022/05/15 07:01:30;;;;;;;4.00;1.40;;;;;;;22.60;48.86;101445.34;1732907;81;21281;-76
2022/05/15 07:03:56;;;;;;;;;;;;;;;22.46;48.26;101452.19;1734306;81;21106;-76
2022/05/15 07:06:22;;;;;;;4.87;1.50;;;;;;;22.43;48.22;101449.72;1708156;82;20962;-76
2022/05/15 07:08:48;;;;;;;5.12;1.40;;;;;;;22.51;48.42;101451.10;1728602;82;22127;-75
2022/05/15 07:11:16;;;;;;;4.25;1.30;;;;;;;22.65;48.27;101444.64;1738080;80;21463;-74
2022/05/15 07:13:43;;;;;;;3.47;1.25;;;;;;;22.70;47.94;101444.78;1740846;80;20911;-75
2022/05/15 07:16:10;;;;;;;2.40;1.10;;;;;;;22.86;47.57;101446.63;1734444;81;21382;-75
2022/05/15 07:18:37;;;;;;;5.00;1.27;;;;;;;22.98;47.27;101441.98;1743467;80;21459;-75
2022/05/15 07:21:03;;;;;;;3.33;0.98;;;;;;;23.08;47.28;101446.67;1744096;80;21179;-75
2022/05/15 07:23:30;;;;;;;4.37;1.22;;;;;;;23.08;46.84;101449.30;1740793;80;20921;-75
2022/05/15 07:25:57;;;;;;;3.10;1.07;;;;;;;23.15;46.71;101450.29;1742679;81;21829;-75
2022/05/15 07:28:23;;;;;;;2.85;1.00;;;;;;;23.24;46.45;101449.78;1741504;80;20918;-78
2022/05/15 07:30:50;;;;;;;2.52;1.10;;;;;;;23.24;46.30;101453.27;1718156;82;20949;-78
2022/05/15 07:33:21;;;;;;;2.92;0.90;;;;;;;23.24;45.99;101449.31;1744875;80;21598;-76
2022/05/15 07:35:51;;;;;;;2.02;0.70;;;;;;;23.29;45.57;101455.19;1735416;80;20910;-76
2022/05/15 07:38:18;;;;;;;4.55;0.98;;;;;;;23.25;45.73;101453.66;1741895;80;21522;-76
2022/05/15 07:40:44;;;;;;;2.60;1.35;;;;;;;23.49;45.70;101459.33;1723020;80;21424;-77
2022/05/15 07:43:12;;;;;;;3.42;1.20;;;;;;;23.60;45.09;101457.43;1734249;80;20902;-77
2022/05/15 07:45:39;;;;;;;1.77;0.80;;;;;;;23.40;44.72;101458.05;1731957;81;21458;-77
2022/05/15 07:48:11;;;;;;;2.72;1.00;;;;;;;23.40;44.72;101458.05;1742940;81;20851;-75
2022/05/15 07:50:38;;;;;;;4.05;0.95;;;;;;;22.97;43.71;101463.55;1747295;80;20852;-78
2022/05/15 07:53:05;;;;;;;1.95;1.20;;;;;;;22.97;43.71;101463.55;1743041;80;20917;-76
2022/05/15 07:55:31;;;;;;;;;;;;;;;22.55;43.28;101456.59;1732235;82;20879;-75
2022/05/15 07:57:57;;;;;;;3.60;1.00;;;;;;;22.27;43.18;101454.10;1742110;80;20288;-81
2022/05/15 08:00:23;;;;;;;3.70;1.20;;;;;;;22.12;43.12;101457.05;1751549;80;21169;-77
2022/05/15 08:02:50;;;;;;;3.70;0.85;;;;;;;22.06;43.09;101465.73;1740563;80;21398;-78
2022/05/15 08:08:09;;;;;;;3.67;1.15;;;;;;;22.15;42.75;101456.05;1745652;80;20930;-78
2022/05/15 08:10:39;;;;;;;3.85;1.30;;;;;;;22.10;42.30;101463.33;1738677;80;20907;-77
2022/05/15 08:13:08;;;;;;;3.45;1.47;;;;;;;21.93;42.19;101469.87;1737686;81;20930;-77
2022/05/15 08:15:37;;;;;;;1.30;0.72;;;;;;;21.90;42.26;101468.23;1734625;80;20906;-77
2022/05/15 08:23:40;;;;;;;1.75;0.80;;;;;;;21.83;41.61;101474.77;1729026;82;20862;-78
2022/05/15 08:26:07;;;;;;;3.67;0.85;;;;;;;21.83;41.51;101469.96;1726111;82;20896;-77
2022/05/15 08:28:34;;;;;;;;;;;;;;;21.79;41.20;101471.42;1724960;82;20879;-79
2022/05/15 08:31:01;;;;;;;;;;;;;;;21.87;41.33;101458.31;1735011;81;20150;-79
2022/05/15 08:33:27;;;;;;;3.80;0.82;;;;;;;21.90;41.06;101468.23;1730883;80;20096;-78
2022/05/15 08:35:54;;;;;;;8.33;1.30;;;;;;;21.99;41.20;101472.20;1721377;82;20930;-77
2022/05/15 08:38:20;;;;;;;2.83;0.90;;;;;;;22.05;40.94;101461.39;1732798;81;20953;-78
2022/05/15 08:41:14;;;;;;;1.98;0.90;;;;;;;22.02;40.78;101465.49;1730794;82;21026;-76
2022/05/15 08:43:50;;;;;;;1.92;0.90;;;;;;;21.97;40.73;101474.05;1722736;80;21388;-79
2022/05/15 08:46:34;;;;;;;1.92;0.95;;;;;;;22.02;40.63;101462.86;1700463;82;20912;-78
2022/05/15 08:49:30;;;;;;;5.20;1.10;;;;;;;22.08;40.50;101461.23;1600347;85;20944;-79
2022/05/15 08:52:08;;;;;;;2.35;1.25;;;;;;;22.09;40.38;101457.20;1736230;81;20898;-78
2022/05/15 08:54:39;;;;;;;3.30;0.90;;;;;;;22.13;40.30;101461.39;1677567;83;22095;-81
2022/05/15 08:57:10;;;;;;;2.02;0.80;;;;;;;22.07;40.11;101460.84;1684421;83;20983;-79
2022/05/15 08:59:51;;;;;;;4.67;1.10;;;;;;;22.08;39.92;101458.59;1667329;83;21161;-80
2022/05/15 09:02:17;;;;;;;1.75;0.90;;;;;;;21.91;39.43;101461.19;1657974;83;21083;-79
2022/05/15 09:04:43;;;;;;;2.60;0.93;;;;;;;21.66;39.46;101451.04;1677581;83;21454;-81
2022/05/15 09:07:20;;;;;;;3.20;1.37;;;;;;;21.56;39.52;101465.11;1626480;85;21512;-79
2022/05/15 09:10:14;;;;;;;5.45;2.35;;;;;;;21.55;39.37;101458.59;1676683;83;21107;-76
2022/05/15 09:13:01;;;;;;;5.28;1.37;;;;;;;21.41;39.30;101454.00;1687809;83;21059;-77
2022/05/15 09:15:30;;;;;;;1.35;0.88;;;;;;;21.23;39.15;101451.80;1675411;83;337608;-77
2022/05/15 09:18:04;;;;;;;3.05;0.70;;;;;;;21.01;39.01;101456.31;1665927;85;20958;-78
2022/05/15 09:20:57;;;;;;;3.17;0.82;;;;;;;20.85;38.86;101453.99;1679859;85;20941;-78
2022/05/15 09:23:50;;;;;;;1.60;0.75;;;;;;;20.70;38.81;101459.50;1659754;84;21043;-77
2022/05/15 09:26:27;;;;;;;2.75;0.88;;;;;;;20.55;38.74;101458.86;1655082;84;20925;-77
2022/05/15 09:29:01;;;;;;;2.25;0.65;;;;;;;20.33;38.56;101461.08;1655853;85;21114;-77
2022/05/15 09:31:42;;;;;;;1.50;0.70;;;;;;;20.18;38.58;101451.25;1673402;84;21148;-77
2022/05/15 09:34:24;;;;;;;2.95;1.10;;;;;;;19.97;38.49;101455.63;1695647;82;21069;-77
2022/05/15 09:38:26;;;;;;;3.35;0.98;;;;;;;19.88;38.62;101457.78;1694144;82;21061;-77
2022/05/15 09:39:27;;;;;;;2.00;0.90;;;;;;;19.78;38.45;101452.91;1701585;82;20962;-77
2022/05/15 09:44:49;;;;;;;4.42;0.82;;;;;;;19.77;38.43;101456.45;1693545;82;20923;-77
2022/05/15 09:47:36;;;;;;;2.00;0.80;;;;;;;19.56;38.23;101448.61;1701488;84;20974;-77
2022/05/15 09:50:05;;;;;;;18.15;1.42;;;;;;;19.48;38.42;101451.51;1683325;82;21284;-77
2022/05/15 09:52:35;;;;;;;2.95;0.90;;;;;;;19.53;38.41;101454.84;1690625;83;20930;-77
2022/05/15 09:55:23;;;;;;;2.85;0.60;;;;;;;19.52;38.16;101443.95;1713596;82;20902;-77
2022/05/15 09:57:57;;;;;;;1.62;0.50;;;;;;;19.42;38.31;101461.78;1700218;82;20958;-78
2022/05/15 10:00:25;;;;;;;1.62;0.90;;;;;;;19.36;38.29;101458.55;1702229;84;21404;-78
2022/05/15 10:02:54;;;;;;;2.40;0.75;;;;;;;19.36;38.35;101455.46;1690460;82;20938;-78
2022/05/15 10:05:27;;;;;;;4.20;0.82;;;;;;;19.41;38.24;101465.77;1676373;84;20894;-78
2022/05/15 10:08:11;;;;;;;2.05;0.70;;;;;;;19.36;38.30;101457.23;1678795;84;21261;-78
2022/05/15 10:10:44;;;;;;;4.00;0.60;;;;;;;19.32;38.24;101459.12;1706274;82;20905;-77
2022/05/15 10:13:36;;;;;;;2.47;1.20;;;;;;;19.31;38.26;101455.25;1732642;82;20918;-78
2022/05/15 10:16:19;;;;;;;3.62;0.70;;;;;;;19.33;38.41;101451.65;1713451;82;20973;-78
2022/05/15 10:19:08;;;;;;;4.40;0.98;;;;;;;19.42;38.34;101442.11;1663804;84;20934;-78
2022/05/15 10:22:07;;;;;;;2.98;0.70;;;;;;;19.47;38.37;101448.03;1684762;84;20926;-77
2022/05/15 10:24:38;;;;;;;2.05;0.88;;;;;;;19.51;38.38;101442.23;1701923;82;20899;-77
2022/05/15 10:27:16;;;;;;;2.77;0.75;;;;;;;19.47;38.33;101432.29;1732960;82;20902;-77
2022/05/15 10:30:12;;;;;;;4.67;2.75;;;;;;;19.48;38.28;101435.31;1688972;82;20997;-77
2022/05/15 10:32:46;;;;;;;1.15;0.62;;;;;;;19.46;38.13;101427.11;1673522;84;21109;-77
2022/05/15 10:35:16;;;;;;;1.75;0.68;;;;;;;19.37;37.97;101436.19;1686669;82;21497;-77
2022/05/15 10:38:11;;;;;;;2.92;0.80;;;;;;;19.28;38.13;101439.17;1703794;82;21584;-77
2022/05/15 10:40:49;;;;;;;2.20;0.62;;;;;;;19.26;38.22;101430.51;1673303;84;21065;-77
2022/05/15 10:43:28;;;;;;;1.82;0.72;;;;;;;19.42;38.26;101426.37;1672638;85;21113;-76
2022/05/15 10:46:06;;;;;;;3.33;0.85;;;;;;;19.52;38.27;101416.86;1680942;84;21114;-76
2022/05/15 10:48:47;;;;;;;1.07;0.72;;;;;;;19.66;38.26;101413.22;1686519;83;21081;-76
2022/05/15 10:51:25;;;;;;;2.35;0.80;;;;;;;19.69;38.22;101420.51;1718422;82;21017;-76
2022/05/15 10:57:39;;;;;;;1.00;0.65;;;;;;;19.78;38.12;101418.79;1710355;82;21097;-77
2022/05/15 11:00:20;;;;;;;2.77;0.62;;;;;;;19.77;38.14;101407.89;1711353;82;21081;-77
2022/05/15 11:03:10;;;;;;;4.67;0.78;;;;;;;19.70;38.13;101393.34;1596319;88;21119;-78
2022/05/15 11:06:32;;;;;;;1.30;0.57;;;;;;;19.78;38.16;101415.31;1618446;88;21094;-78
2022/05/15 11:09:32;;;;;;;2.33;1.02;;;;;;;19.88;38.18;101404.83;1621737;87;21092;-78
2022/05/15 11:12:21;;;;;;;2.02;0.65;;;;;;;20.01;38.23;101406.48;1615827;86;21178;-78
2022/05/15 11:15:25;;;;;;;1.52;0.57;;;;;;;20.15;38.21;101409.37;1615813;88;21020;-78
2022/05/15 11:18:21;;;;;;;1.80;0.70;;;;;;;20.24;38.15;101401.55;1598954;88;21135;-78
2022/05/15 11:20:56;;;;;;;4.00;0.68;;;;;;;20.31;38.20;101392.45;1625078;86;21655;-77
2022/05/15 11:23:31;;;;;;;1.35;0.75;;;;;;;20.43;38.11;101390.63;1629455;86;21085;-77
2022/05/15 11:26:05;;;;;;;2.33;1.02;;;;;;;20.34;37.96;101389.23;1603441;88;21067;-77
2022/05/15 11:28:42;;;;;;;3.70;0.90;;;;;;;20.32;38.02;101390.22;1599743;86;21104;-77
2022/05/15 11:31:13;;;;;;;1.20;0.75;;;;;;;20.35;38.10;101385.69;1625049;86;20948;-77
2022/05/15 11:33:58;;;;;;;1.82;0.72;;;;;;;20.44;38.04;101385.31;1601639;88;20933;-77
2022/05/15 11:36:40;;;;;;;2.55;0.95;;;;;;;20.52;37.92;101374.45;1605885;88;21529;-77
2022/05/15 11:39:22;;;;;;;1.47;0.88;;;;;;;20.55;38.00;101377.41;1619857;86;20952;-77
2022/05/15 11:42:14;;;;;;;2.05;0.80;;;;;;;20.62;37.99;101377.06;1679542;84;20933;-78
2022/05/15 11:44:46;;;;;;;1.22;0.70;;;;;;;20.64;37.75;101373.91;1679635;85;20958;-78
2022/05/15 11:47:26;;;;;;;1.60;0.62;;;;;;;20.55;37.85;101370.38;1691849;82;21250;-78
2022/05/15 11:50:14;;;;;;;3.47;0.85;;;;;;;20.60;37.78;101362.28;1679450;85;20966;-78
2022/05/15 11:52:55;;;;;;;1.95;0.70;;;;;;;20.62;37.82;101361.30;1679171;85;21422;-78
2022/05/15 11:55:48;;;;;;;1.30;0.70;;;;;;;20.68;37.74;101362.33;1691897;82;20903;-78
2022/05/15 11:58:33;;;;;;;2.58;0.90;;;;;;;20.70;37.72;101360.94;1679258;85;20969;-78
2022/05/15 12:01:33;;;;;;;2.02;1.02;;;;;;;20.73;37.68;101353.77;1679454;84;21284;-78
2022/05/15 12:04:04;;;;;;;2.83;0.93;;;;;;;20.74;37.54;101352.84;1679346;84;21383;-78
2022/05/15 12:07:00;;;;;;;3.17;0.80;;;;;;;20.71;37.51;101350.82;1730462;82;20957;-78
2022/05/15 12:09:41;;;;;;;2.85;1.20;;;;;;;20.66;37.56;101353.66;1677661;84;21048;-77
2022/05/15 12:12:33;;;;;;;2.83;0.90;;;;;;;20.70;37.18;101353.91;1678044;84;21109;-77
2022/05/15 12:15:22;;;;;;;3.05;0.50;;;;;;;20.56;37.24;101351.52;1695752;82;20981;-77
2022/05/15 12:17:56;;;;;;;2.52;0.80;;;;;;;20.50;37.34;101351.34;1683452;82;21125;-77
2022/05/15 12:20:30;;;;;;;1.40;0.60;;;;;;;20.53;37.37;101335.89;1678359;84;21092;-77
2022/05/15 12:23:08;;;;;;;2.52;0.93;;;;;;;20.58;37.37;101350.98;1675205;82;21065;-77
2022/05/15 12:25:39;;;;;;;1.20;0.70;;;;;;;20.62;37.32;101349.93;1692248;84;21124;-77
2022/05/15 12:28:53;;;;;;;3.17;0.80;;;;;;;20.62;37.16;101344.21;1676687;84;21077;-77
2022/05/15 12:31:40;;;;;;;6.40;0.75;;;;;;;20.49;37.20;101337.81;1701859;83;21413;-77
2022/05/15 12:34:25;;;;;;;3.02;0.80;;;;;;;20.51;37.29;101329.86;1701087;84;21053;-77
2022/05/15 12:37:02;;;;;;;0.78;0.72;;;;;;;20.60;37.22;101332.06;1678224;82;21885;-77
2022/05/15 12:39:37;;;;;;;2.65;0.90;;;;;;;20.53;37.14;101333.27;1685048;84;21025;-77
2022/05/15 12:42:11;;;;;;;10.88;1.70;;;;;;;20.48;37.07;101330.39;1675022;84;21096;-77
2022/05/15 12:44:39;;;;;;;3.52;1.00;;;;;;;20.47;37.18;101324.75;1685048;82;21029;-77